sensor_id;sensor_type;location;lat;lon;timestamp;pressure;altitude;pressure_sealevel;temperature;humidity
6044;BME280;3050;42.660;23.276;2023-02-19T00:01:53;57403.91;;;-146.25;100.00
6044;BME280;3050;42.660;23.276;2023-02-19T00:04:21;57403.91;;;-146.25;100.00
6044;BME280;3050;42.660;23.276;2023-02-19T00:06:48;57403.91;;;-146.25;100.00
6044;BME280;3050;42.660;23.276;2023-02-19T00:09:18;57403.91;;;-146.25;100.00
6044;BME280;3050;42.660;23.276;2023-02-19T00:11:47;57403.91;;;-146.25;100.00
6044;BME280;3050;42.660;23.276;2023-02-19T00:14:16;57403.91;;;-146.25;100.00
6044;BME280;3050;42.660;23.276;2023-02-19T00:16:45;57403.91;;;-146.25;100.00
6044;BME280;3050;42.660;23.276;2023-02-19T00:19:18;57403.91;;;-146.25;100.00
6044;BME280;3050;42.660;23.276;2023-02-19T00:21:46;57403.91;;;-146.25;100.00
6044;BME280;3050;42.660;23.276;2023-02-19T00:24:14;57403.91;;;-146.25;100.00
6044;BME280;3050;42.660;23.276;2023-02-19T00:26:43;57403.91;;;-146.25;100.00
6044;BME280;3050;42.660;23.276;2023-02-19T00:29:15;57403.91;;;-146.25;100.00
6044;BME280;3050;42.660;23.276;2023-02-19T00:31:44;57403.91;;;-146.25;100.00
6044;BME280;3050;42.660;23.276;2023-02-19T00:34:13;57403.91;;;-146.25;100.00
6044;BME280;3050;42.660;23.276;2023-02-19T00:36:41;57403.91;;;-146.25;100.00
6044;BME280;3050;42.660;23.276;2023-02-19T00:39:11;57403.91;;;-146.25;100.00
6044;BME280;3050;42.660;23.276;2023-02-19T00:41:39;57403.91;;;-146.25;100.00
6044;BME280;3050;42.660;23.276;2023-02-19T00:44:08;57403.91;;;-146.25;100.00
6044;BME280;3050;42.660;23.276;2023-02-19T00:46:39;57403.91;;;-146.25;100.00
6044;BME280;3050;42.660;23.276;2023-02-19T00:49:13;57403.91;;;-146.25;100.00
6044;BME280;3050;42.660;23.276;2023-02-19T00:51:42;57403.91;;;-146.25;100.00
6044;BME280;3050;42.660;23.276;2023-02-19T00:54:14;57403.91;;;-146.25;100.00
6044;BME280;3050;42.660;23.276;2023-02-19T00:56:41;57403.91;;;-146.25;100.00
6044;BME280;3050;42.660;23.276;2023-02-19T00:59:10;57403.91;;;-146.25;100.00
6044;BME280;3050;42.660;23.276;2023-02-19T01:01:39;57403.91;;;-146.25;100.00
6044;BME280;3050;42.660;23.276;2023-02-19T01:04:09;57403.91;;;-146.25;100.00
6044;BME280;3050;42.660;23.276;2023-02-19T01:06:36;57403.91;;;-146.25;100.00
6044;BME280;3050;42.660;23.276;2023-02-19T01:09:04;57403.91;;;-146.25;100.00
6044;BME280;3050;42.660;23.276;2023-02-19T01:11:32;57403.91;;;-146.25;100.00
6044;BME280;3050;42.660;23.276;2023-02-19T01:14:03;57403.91;;;-146.25;100.00
6044;BME280;3050;42.660;23.276;2023-02-19T01:16:30;57403.91;;;-146.25;100.00
6044;BME280;3050;42.660;23.276;2023-02-19T01:19:00;57403.91;;;-146.25;100.00
6044;BME280;3050;42.660;23.276;2023-02-19T01:21:28;57403.91;;;-146.25;100.00
6044;BME280;3050;42.660;23.276;2023-02-19T01:23:58;57403.91;;;-146.25;100.00
6044;BME280;3050;42.660;23.276;2023-02-19T01:26:29;57403.91;;;-146.25;100.00
6044;BME280;3050;42.660;23.276;2023-02-19T01:28:57;57403.91;;;-146.25;100.00
6044;BME280;3050;42.660;23.276;2023-02-19T01:31:25;57403.91;;;-146.25;100.00
6044;BME280;3050;42.660;23.276;2023-02-19T01:33:54;57403.91;;;-146.25;100.00
6044;BME280;3050;42.660;23.276;2023-02-19T01:36:24;57403.91;;;-146.25;100.00
6044;BME280;3050;42.660;23.276;2023-02-19T01:38:51;57403.91;;;-146.25;100.00
6044;BME280;3050;42.660;23.276;2023-02-19T01:41:22;57403.91;;;-146.25;100.00
6044;BME280;3050;42.660;23.276;2023-02-19T01:43:59;57403.91;;;-146.25;100.00
6044;BME280;3050;42.660;23.276;2023-02-19T01:46:28;57403.91;;;-146.25;100.00
6044;BME280;3050;42.660;23.276;2023-02-19T01:48:57;57403.91;;;-146.25;100.00
6044;BME280;3050;42.660;23.276;2023-02-19T01:51:27;57403.91;;;-146.25;100.00
6044;BME280;3050;42.660;23.276;2023-02-19T01:53:59;57403.91;;;-146.25;100.00
6044;BME280;3050;42.660;23.276;2023-02-19T01:56:29;57403.91;;;-146.25;100.00
6044;BME280;3050;42.660;23.276;2023-02-19T01:59:00;57403.91;;;-146.25;100.00
6044;BME280;3050;42.660;23.276;2023-02-19T02:01:27;57403.91;;;-146.25;100.00
6044;BME280;3050;42.660;23.276;2023-02-19T02:03:58;57403.91;;;-146.25;100.00
6044;BME280;3050;42.660;23.276;2023-02-19T02:06:30;57403.91;;;-146.25;100.00
6044;BME280;3050;42.660;23.276;2023-02-19T02:09:00;57403.91;;;-146.25;100.00
6044;BME280;3050;42.660;23.276;2023-02-19T02:11:46;57403.91;;;-146.25;100.00
6044;BME280;3050;42.660;23.276;2023-02-19T02:14:16;57403.91;;;-146.25;100.00
6044;BME280;3050;42.660;23.276;2023-02-19T02:16:53;57403.91;;;-146.25;100.00
6044;BME280;3050;42.660;23.276;2023-02-19T02:19:50;57403.91;;;-146.25;100.00
6044;BME280;3050;42.660;23.276;2023-02-19T02:22:27;57403.91;;;-146.25;100.00
6044;BME280;3050;42.660;23.276;2023-02-19T02:28:00;57403.91;;;-146.25;100.00
6044;BME280;3050;42.660;23.276;2023-02-19T02:30:36;57403.91;;;-146.25;100.00
6044;BME280;3050;42.660;23.276;2023-02-19T02:33:12;57403.91;;;-146.25;100.00
6044;BME280;3050;42.660;23.276;2023-02-19T02:35:44;57403.91;;;-146.25;100.00
6044;BME280;3050;42.660;23.276;2023-02-19T02:38:15;57403.91;;;-146.25;100.00
6044;BME280;3050;42.660;23.276;2023-02-19T02:40:46;57403.91;;;-146.25;100.00
6044;BME280;3050;42.660;23.276;2023-02-19T02:43:15;57403.91;;;-146.25;100.00
6044;BME280;3050;42.660;23.276;2023-02-19T02:45:43;57403.91;;;-146.25;100.00
6044;BME280;3050;42.660;23.276;2023-02-19T02:48:25;57403.91;;;-146.25;100.00
6044;BME280;3050;42.660;23.276;2023-02-19T02:50:58;57403.91;;;-146.25;100.00
6044;BME280;3050;42.660;23.276;2023-02-19T02:53:29;57403.91;;;-146.25;100.00
6044;BME280;3050;42.660;23.276;2023-02-19T02:56:16;57403.91;;;-146.25;100.00
6044;BME280;3050;42.660;23.276;2023-02-19T02:58:45;57403.91;;;-146.25;100.00
6044;BME280;3050;42.660;23.276;2023-02-19T03:01:20;57403.91;;;-146.25;100.00
6044;BME280;3050;42.660;23.276;2023-02-19T03:04:09;57403.91;;;-146.25;100.00
6044;BME280;3050;42.660;23.276;2023-02-19T03:06:41;57403.91;;;-146.25;100.00
6044;BME280;3050;42.660;23.276;2023-02-19T03:09:13;57403.91;;;-146.25;100.00
6044;BME280;3050;42.660;23.276;2023-02-19T03:11:45;57403.91;;;-146.25;100.00
6044;BME280;3050;42.660;23.276;2023-02-19T03:14:36;57403.91;;;-146.25;100.00
6044;BME280;3050;42.660;23.276;2023-02-19T03:17:29;57403.91;;;-146.25;100.00
6044;BME280;3050;42.660;23.276;2023-02-19T03:20:20;57403.91;;;-146.25;100.00
6044;BME280;3050;42.660;23.276;2023-02-19T03:22:50;57403.91;;;-146.25;100.00
6044;BME280;3050;42.660;23.276;2023-02-19T03:25:21;57403.91;;;-146.25;100.00
6044;BME280;3050;42.660;23.276;2023-02-19T03:28:09;57403.91;;;-146.25;100.00
6044;BME280;3050;42.660;23.276;2023-02-19T03:30:40;57403.91;;;-146.25;100.00
6044;BME280;3050;42.660;23.276;2023-02-19T03:33:13;57403.91;;;-146.25;100.00
6044;BME280;3050;42.660;23.276;2023-02-19T03:35:46;57403.91;;;-146.25;100.00
6044;BME280;3050;42.660;23.276;2023-02-19T03:38:18;57403.91;;;-146.25;100.00
6044;BME280;3050;42.660;23.276;2023-02-19T03:40:55;57403.91;;;-146.25;100.00
6044;BME280;3050;42.660;23.276;2023-02-19T03:43:34;57403.91;;;-146.25;100.00
6044;BME280;3050;42.660;23.276;2023-02-19T03:46:07;57403.91;;;-146.25;100.00
6044;BME280;3050;42.660;23.276;2023-02-19T03:48:40;57403.91;;;-146.25;100.00
6044;BME280;3050;42.660;23.276;2023-02-19T03:51:20;57403.91;;;-146.25;100.00
6044;BME280;3050;42.660;23.276;2023-02-19T03:53:59;57403.91;;;-146.25;100.00
6044;BME280;3050;42.660;23.276;2023-02-19T03:56:33;57403.91;;;-146.25;100.00
6044;BME280;3050;42.660;23.276;2023-02-19T03:59:08;57403.91;;;-146.25;100.00
6044;BME280;3050;42.660;23.276;2023-02-19T04:01:44;57403.91;;;-146.25;100.00
6044;BME280;3050;42.660;23.276;2023-02-19T04:04:17;57403.91;;;-146.25;100.00
6044;BME280;3050;42.660;23.276;2023-02-19T04:06:52;57403.91;;;-146.25;100.00
6044;BME280;3050;42.660;23.276;2023-02-19T04:09:21;57403.91;;;-146.25;100.00
6044;BME280;3050;42.660;23.276;2023-02-19T04:11:50;57403.91;;;-146.25;100.00
6044;BME280;3050;42.660;23.276;2023-02-19T04:14:24;57403.91;;;-146.25;100.00
6044;BME280;3050;42.660;23.276;2023-02-19T04:16:58;57403.91;;;-146.25;100.00
6044;BME280;3050;42.660;23.276;2023-02-19T04:19:31;57403.91;;;-146.25;100.00
6044;BME280;3050;42.660;23.276;2023-02-19T04:22:03;57403.91;;;-146.25;100.00
6044;BME280;3050;42.660;23.276;2023-02-19T04:24:37;57403.91;;;-146.25;100.00
6044;BME280;3050;42.660;23.276;2023-02-19T04:27:08;57403.91;;;-146.25;100.00
6044;BME280;3050;42.660;23.276;2023-02-19T04:29:39;57403.91;;;-146.25;100.00
6044;BME280;3050;42.660;23.276;2023-02-19T04:32:08;57403.91;;;-146.25;100.00
6044;BME280;3050;42.660;23.276;2023-02-19T04:34:37;57403.91;;;-146.25;100.00
6044;BME280;3050;42.660;23.276;2023-02-19T04:37:05;57403.91;;;-146.25;100.00
6044;BME280;3050;42.660;23.276;2023-02-19T04:39:34;57403.91;;;-146.25;100.00
6044;BME280;3050;42.660;23.276;2023-02-19T04:42:02;57403.91;;;-146.25;100.00
6044;BME280;3050;42.660;23.276;2023-02-19T04:44:29;57403.91;;;-146.25;100.00
6044;BME280;3050;42.660;23.276;2023-02-19T04:46:57;57403.91;;;-146.25;100.00
6044;BME280;3050;42.660;23.276;2023-02-19T04:49:24;57403.91;;;-146.25;100.00
6044;BME280;3050;42.660;23.276;2023-02-19T04:51:53;57403.91;;;-146.25;100.00
6044;BME280;3050;42.660;23.276;2023-02-19T04:54:21;57403.91;;;-146.25;100.00
6044;BME280;3050;42.660;23.276;2023-02-19T04:56:48;57403.91;;;-146.25;100.00
6044;BME280;3050;42.660;23.276;2023-02-19T04:59:16;57403.91;;;-146.25;100.00
6044;BME280;3050;42.660;23.276;2023-02-19T05:01:43;57403.91;;;-146.25;100.00
6044;BME280;3050;42.660;23.276;2023-02-19T05:04:11;57403.91;;;-146.25;100.00
6044;BME280;3050;42.660;23.276;2023-02-19T05:06:39;57403.91;;;-146.25;100.00
6044;BME280;3050;42.660;23.276;2023-02-19T05:09:08;57403.91;;;-146.25;100.00
6044;BME280;3050;42.660;23.276;2023-02-19T05:11:36;57403.91;;;-146.25;100.00
6044;BME280;3050;42.660;23.276;2023-02-19T05:14:03;57403.91;;;-146.25;100.00
6044;BME280;3050;42.660;23.276;2023-02-19T05:16:30;57403.91;;;-146.25;100.00
6044;BME280;3050;42.660;23.276;2023-02-19T05:18:58;57403.91;;;-146.25;100.00
6044;BME280;3050;42.660;23.276;2023-02-19T05:21:26;57403.91;;;-146.25;100.00
6044;BME280;3050;42.660;23.276;2023-02-19T05:23:53;57403.91;;;-146.25;100.00
6044;BME280;3050;42.660;23.276;2023-02-19T05:26:23;57403.91;;;-146.25;100.00
6044;BME280;3050;42.660;23.276;2023-02-19T05:28:52;57403.91;;;-146.25;100.00
6044;BME280;3050;42.660;23.276;2023-02-19T05:31:21;57403.91;;;-146.25;100.00
6044;BME280;3050;42.660;23.276;2023-02-19T05:33:49;57403.91;;;-146.25;100.00
6044;BME280;3050;42.660;23.276;2023-02-19T05:36:19;57403.91;;;-146.25;100.00
6044;BME280;3050;42.660;23.276;2023-02-19T05:38:46;57403.91;;;-146.25;100.00
6044;BME280;3050;42.660;23.276;2023-02-19T05:41:16;57403.91;;;-146.25;100.00
6044;BME280;3050;42.660;23.276;2023-02-19T05:43:47;57403.91;;;-146.25;100.00
6044;BME280;3050;42.660;23.276;2023-02-19T05:46:17;57403.91;;;-146.25;100.00
6044;BME280;3050;42.660;23.276;2023-02-19T05:48:46;57403.91;;;-146.25;100.00
6044;BME280;3050;42.660;23.276;2023-02-19T05:51:17;57403.91;;;-146.25;100.00
6044;BME280;3050;42.660;23.276;2023-02-19T05:53:46;57403.91;;;-146.25;100.00
6044;BME280;3050;42.660;23.276;2023-02-19T05:56:31;57403.91;;;-146.25;100.00
6044;BME280;3050;42.660;23.276;2023-02-19T05:59:07;57403.91;;;-146.25;100.00
6044;BME280;3050;42.660;23.276;2023-02-19T06:01:40;57403.91;;;-146.25;100.00
6044;BME280;3050;42.660;23.276;2023-02-19T06:04:09;57403.91;;;-146.25;100.00
6044;BME280;3050;42.660;23.276;2023-02-19T06:06:36;57403.91;;;-146.25;100.00
6044;BME280;3050;42.660;23.276;2023-02-19T06:09:04;57403.91;;;-146.25;100.00
6044;BME280;3050;42.660;23.276;2023-02-19T06:11:32;57403.91;;;-146.25;100.00
6044;BME280;3050;42.660;23.276;2023-02-19T06:14:00;57403.91;;;-146.25;100.00
6044;BME280;3050;42.660;23.276;2023-02-19T06:16:31;57403.91;;;-146.25;100.00
6044;BME280;3050;42.660;23.276;2023-02-19T06:19:01;57403.91;;;-146.25;100.00
6044;BME280;3050;42.660;23.276;2023-02-19T06:21:29;57403.91;;;-146.25;100.00
6044;BME280;3050;42.660;23.276;2023-02-19T06:24:04;57403.91;;;-146.25;100.00
6044;BME280;3050;42.660;23.276;2023-02-19T06:26:34;57403.91;;;-146.25;100.00
6044;BME280;3050;42.660;23.276;2023-02-19T06:29:02;57403.91;;;-146.25;100.00
6044;BME280;3050;42.660;23.276;2023-02-19T06:31:32;57403.91;;;-146.25;100.00
6044;BME280;3050;42.660;23.276;2023-02-19T06:34:03;57403.91;;;-146.25;100.00
6044;BME280;3050;42.660;23.276;2023-02-19T06:36:31;57403.91;;;-146.25;100.00
6044;BME280;3050;42.660;23.276;2023-02-19T06:39:00;57403.91;;;-146.25;100.00
6044;BME280;3050;42.660;23.276;2023-02-19T06:41:28;57403.91;;;-146.25;100.00
6044;BME280;3050;42.660;23.276;2023-02-19T06:43:57;57403.91;;;-146.25;100.00
6044;BME280;3050;42.660;23.276;2023-02-19T06:46:25;57403.91;;;-146.25;100.00
6044;BME280;3050;42.660;23.276;2023-02-19T06:48:57;57403.91;;;-146.25;100.00
6044;BME280;3050;42.660;23.276;2023-02-19T06:51:25;57403.91;;;-146.25;100.00
6044;BME280;3050;42.660;23.276;2023-02-19T06:53:54;57403.91;;;-146.25;100.00
6044;BME280;3050;42.660;23.276;2023-02-19T06:56:23;57403.91;;;-146.25;100.00
6044;BME280;3050;42.660;23.276;2023-02-19T06:58:51;57403.91;;;-146.25;100.00
6044;BME280;3050;42.660;23.276;2023-02-19T07:01:20;57403.91;;;-146.25;100.00
6044;BME280;3050;42.660;23.276;2023-02-19T07:03:49;57403.91;;;-146.25;100.00
6044;BME280;3050;42.660;23.276;2023-02-19T07:06:19;57403.91;;;-146.25;100.00
6044;BME280;3050;42.660;23.276;2023-02-19T07:08:47;57403.91;;;-146.25;100.00
6044;BME280;3050;42.660;23.276;2023-02-19T07:11:16;57403.91;;;-146.25;100.00
6044;BME280;3050;42.660;23.276;2023-02-19T07:13:47;57403.91;;;-146.25;100.00
6044;BME280;3050;42.660;23.276;2023-02-19T07:16:15;57403.91;;;-146.25;100.00
6044;BME280;3050;42.660;23.276;2023-02-19T07:18:44;57403.91;;;-146.25;100.00
6044;BME280;3050;42.660;23.276;2023-02-19T07:21:13;57403.91;;;-146.25;100.00
6044;BME280;3050;42.660;23.276;2023-02-19T07:23:51;57403.91;;;-146.25;100.00
6044;BME280;3050;42.660;23.276;2023-02-19T07:26:20;57403.91;;;-146.25;100.00
6044;BME280;3050;42.660;23.276;2023-02-19T07:28:49;57403.91;;;-146.25;100.00
6044;BME280;3050;42.660;23.276;2023-02-19T07:31:19;57403.91;;;-146.25;100.00
6044;BME280;3050;42.660;23.276;2023-02-19T07:33:49;57403.91;;;-146.25;100.00
6044;BME280;3050;42.660;23.276;2023-02-19T07:36:18;57403.91;;;-146.25;100.00
6044;BME280;3050;42.660;23.276;2023-02-19T07:38:52;57403.91;;;-146.25;100.00
6044;BME280;3050;42.660;23.276;2023-02-19T07:41:21;57403.91;;;-146.25;100.00
6044;BME280;3050;42.660;23.276;2023-02-19T07:43:49;57403.91;;;-146.25;100.00
6044;BME280;3050;42.660;23.276;2023-02-19T07:46:16;57403.91;;;-146.25;100.00
6044;BME280;3050;42.660;23.276;2023-02-19T07:48:44;57403.91;;;-146.25;100.00
6044;BME280;3050;42.660;23.276;2023-02-19T07:51:17;57403.91;;;-146.25;100.00
6044;BME280;3050;42.660;23.276;2023-02-19T07:53:45;57403.91;;;-146.25;100.00
6044;BME280;3050;42.660;23.276;2023-02-19T07:56:17;57403.91;;;-146.25;100.00
6044;BME280;3050;42.660;23.276;2023-02-19T07:58:45;57403.91;;;-146.25;100.00
6044;BME280;3050;42.660;23.276;2023-02-19T08:01:14;57403.91;;;-146.25;100.00
6044;BME280;3050;42.660;23.276;2023-02-19T08:03:45;57403.91;;;-146.25;100.00
6044;BME280;3050;42.660;23.276;2023-02-19T08:06:15;57403.91;;;-146.25;100.00
6044;BME280;3050;42.660;23.276;2023-02-19T08:08:44;57403.91;;;-146.25;100.00
6044;BME280;3050;42.660;23.276;2023-02-19T08:11:14;57403.91;;;-146.25;100.00
6044;BME280;3050;42.660;23.276;2023-02-19T08:14:00;57403.91;;;-146.25;100.00
6044;BME280;3050;42.660;23.276;2023-02-19T08:16:27;57403.91;;;-146.25;100.00
6044;BME280;3050;42.660;23.276;2023-02-19T08:18:56;57403.91;;;-146.25;100.00
6044;BME280;3050;42.660;23.276;2023-02-19T08:21:24;57403.91;;;-146.25;100.00
6044;BME280;3050;42.660;23.276;2023-02-19T08:23:51;57403.91;;;-146.25;100.00
6044;BME280;3050;42.660;23.276;2023-02-19T08:26:23;57403.91;;;-146.25;100.00
6044;BME280;3050;42.660;23.276;2023-02-19T08:28:50;57403.91;;;-146.25;100.00
6044;BME280;3050;42.660;23.276;2023-02-19T08:31:18;57403.91;;;-146.25;100.00
6044;BME280;3050;42.660;23.276;2023-02-19T08:33:46;57403.91;;;-146.25;100.00
6044;BME280;3050;42.660;23.276;2023-02-19T08:36:13;57403.91;;;-146.25;100.00
6044;BME280;3050;42.660;23.276;2023-02-19T08:38:42;57403.91;;;-146.25;100.00
6044;BME280;3050;42.660;23.276;2023-02-19T08:41:13;57403.91;;;-146.25;100.00
6044;BME280;3050;42.660;23.276;2023-02-19T08:43:42;57403.91;;;-146.25;100.00
6044;BME280;3050;42.660;23.276;2023-02-19T08:46:11;57403.91;;;-146.25;100.00
6044;BME280;3050;42.660;23.276;2023-02-19T08:48:39;57403.91;;;-146.25;100.00
6044;BME280;3050;42.660;23.276;2023-02-19T08:51:09;57403.91;;;-146.25;100.00
6044;BME280;3050;42.660;23.276;2023-02-19T08:53:38;57403.91;;;-146.25;100.00
6044;BME280;3050;42.660;23.276;2023-02-19T08:56:10;57403.91;;;-146.25;100.00
6044;BME280;3050;42.660;23.276;2023-02-19T08:58:39;57403.91;;;-146.25;100.00
6044;BME280;3050;42.660;23.276;2023-02-19T09:01:09;57403.91;;;-146.25;100.00
6044;BME280;3050;42.660;23.276;2023-02-19T09:03:38;57403.91;;;-146.25;100.00
6044;BME280;3050;42.660;23.276;2023-02-19T09:06:06;57403.91;;;-146.25;100.00
6044;BME280;3050;42.660;23.276;2023-02-19T09:08:34;57403.91;;;-146.25;100.00
6044;BME280;3050;42.660;23.276;2023-02-19T09:11:03;57403.91;;;-146.25;100.00
6044;BME280;3050;42.660;23.276;2023-02-19T09:13:33;57403.91;;;-146.25;100.00
6044;BME280;3050;42.660;23.276;2023-02-19T09:16:03;57403.91;;;-146.25;100.00
6044;BME280;3050;42.660;23.276;2023-02-19T09:18:33;57403.91;;;-146.25;100.00
6044;BME280;3050;42.660;23.276;2023-02-19T09:21:02;57403.91;;;-146.25;100.00
6044;BME280;3050;42.660;23.276;2023-02-19T09:23:31;57403.91;;;-146.25;100.00
6044;BME280;3050;42.660;23.276;2023-02-19T09:26:00;57403.91;;;-146.25;100.00
6044;BME280;3050;42.660;23.276;2023-02-19T09:28:31;57403.91;;;-146.25;100.00
6044;BME280;3050;42.660;23.276;2023-02-19T09:31:03;57403.91;;;-146.25;100.00
6044;BME280;3050;42.660;23.276;2023-02-19T09:33:46;57403.91;;;-146.25;100.00
6044;BME280;3050;42.660;23.276;2023-02-19T09:36:15;57403.91;;;-146.25;100.00
6044;BME280;3050;42.660;23.276;2023-02-19T09:38:52;57403.91;;;-146.25;100.00
6044;BME280;3050;42.660;23.276;2023-02-19T09:41:43;57403.91;;;-146.25;100.00
6044;BME280;3050;42.660;23.276;2023-02-19T09:44:13;57403.91;;;-146.25;100.00
6044;BME280;3050;42.660;23.276;2023-02-19T09:46:44;57403.91;;;-146.25;100.00
6044;BME280;3050;42.660;23.276;2023-02-19T09:49:19;57403.91;;;-146.25;100.00
6044;BME280;3050;42.660;23.276;2023-02-19T09:51:49;57403.91;;;-146.25;100.00
6044;BME280;3050;42.660;23.276;2023-02-19T09:54:21;57403.91;;;-146.25;100.00
6044;BME280;3050;42.660;23.276;2023-02-19T09:56:50;57403.91;;;-146.25;100.00
6044;BME280;3050;42.660;23.276;2023-02-19T09:59:23;57403.91;;;-146.25;100.00
6044;BME280;3050;42.660;23.276;2023-02-19T10:02:00;57403.91;;;-146.25;100.00
6044;BME280;3050;42.660;23.276;2023-02-19T10:04:38;57403.91;;;-146.25;100.00
6044;BME280;3050;42.660;23.276;2023-02-19T10:07:09;57403.91;;;-146.25;100.00
6044;BME280;3050;42.660;23.276;2023-02-19T10:09:43;57403.91;;;-146.25;100.00
6044;BME280;3050;42.660;23.276;2023-02-19T10:12:23;57403.91;;;-146.25;100.00
6044;BME280;3050;42.660;23.276;2023-02-19T10:14:54;57403.91;;;-146.25;100.00
6044;BME280;3050;42.660;23.276;2023-02-19T10:17:27;57403.91;;;-146.25;100.00
6044;BME280;3050;42.660;23.276;2023-02-19T10:19:57;57403.91;;;-146.25;100.00
6044;BME280;3050;42.660;23.276;2023-02-19T10:22:25;57403.91;;;-146.25;100.00
6044;BME280;3050;42.660;23.276;2023-02-19T10:24:56;57403.91;;;-146.25;100.00
6044;BME280;3050;42.660;23.276;2023-02-19T10:27:25;57403.91;;;-146.25;100.00
6044;BME280;3050;42.660;23.276;2023-02-19T10:29:54;57403.91;;;-146.25;100.00
6044;BME280;3050;42.660;23.276;2023-02-19T10:32:23;57403.91;;;-146.25;100.00
6044;BME280;3050;42.660;23.276;2023-02-19T11:25:33;47022.94;;;-146.24;33.10
6044;BME280;3050;42.660;23.276;2023-02-19T11:28:03;47034.47;;;-146.24;32.96
6044;BME280;3050;42.660;23.276;2023-02-19T11:30:36;47028.69;;;-146.24;32.68
6044;BME280;3050;42.660;23.276;2023-02-19T11:33:28;46990.31;;;-146.24;32.49
6044;BME280;3050;42.660;23.276;2023-02-19T11:36:30;46998.00;;;-146.24;32.51
6044;BME280;3050;42.660;23.276;2023-02-19T11:39:17;47017.19;;;-146.24;32.40
6044;BME280;3050;42.660;23.276;2023-02-19T11:42:07;47053.63;;;-146.24;32.64
6044;BME280;3050;42.660;23.276;2023-02-19T11:44:55;47044.06;;;-146.24;32.38
6044;BME280;3050;42.660;23.276;2023-02-19T11:47:50;47003.75;;;-146.24;32.15
6044;BME280;3050;42.660;23.276;2023-02-19T11:50:31;47047.88;;;-146.24;32.11
6044;BME280;3050;42.660;23.276;2023-02-19T11:53:19;47030.63;;;-146.24;31.87
6044;BME280;3050;42.660;23.276;2023-02-19T11:56:05;47019.09;;;-146.24;31.64
6044;BME280;3050;42.660;23.276;2023-02-19T11:59:02;47038.28;;;-146.24;31.90
6044;BME280;3050;42.660;23.276;2023-02-19T12:01:55;46984.56;;;-146.24;32.21
6044;BME280;3050;42.660;23.276;2023-02-19T12:04:41;47026.78;;;-146.24;32.25
6044;BME280;3050;42.660;23.276;2023-02-19T12:07:22;47005.69;;;-146.24;31.79
6044;BME280;3050;42.660;23.276;2023-02-19T12:10:04;46982.66;;;-146.24;32.00
6044;BME280;3050;42.660;23.276;2023-02-19T12:12:51;47072.81;;;-146.24;32.01
6044;BME280;3050;42.660;23.276;2023-02-19T12:15:38;47017.19;;;-146.24;31.45
6044;BME280;3050;42.660;23.276;2023-02-19T12:21:21;46990.31;;;-146.24;31.95
6044;BME280;3050;42.660;23.276;2023-02-19T12:24:14;47026.78;;;-146.24;31.21
6044;BME280;3050;42.660;23.276;2023-02-19T12:27:04;47069.00;;;-146.24;31.33
6044;BME280;3050;42.660;23.276;2023-02-19T12:29:56;47047.88;;;-146.24;32.49
6044;BME280;3050;42.660;23.276;2023-02-19T12:32:47;47030.63;;;-146.24;31.61
6044;BME280;3050;42.660;23.276;2023-02-19T12:38:21;47009.50;;;-146.24;31.61
6044;BME280;3050;42.660;23.276;2023-02-19T12:41:14;47003.75;;;-146.24;31.64
6044;BME280;3050;42.660;23.276;2023-02-19T12:43:53;47021.03;;;-146.24;31.54
6044;BME280;3050;42.660;23.276;2023-02-19T12:46:28;47069.00;;;-146.24;32.01
6044;BME280;3050;42.660;23.276;2023-02-19T12:49:02;47032.53;;;-146.24;32.30
6044;BME280;3050;42.660;23.276;2023-02-19T12:51:40;47005.69;;;-146.24;32.68
6044;BME280;3050;42.660;23.276;2023-02-19T12:54:13;47036.38;;;-146.24;100.00
6044;BME280;3050;42.660;23.276;2023-02-19T12:56:47;57403.91;;;-146.25;100.00
6044;BME280;3050;42.660;23.276;2023-02-19T12:59:21;57403.91;;;-146.25;100.00
6044;BME280;3050;42.660;23.276;2023-02-19T13:06:35;57403.91;;;-146.25;100.00
6044;BME280;3050;42.660;23.276;2023-02-19T13:09:20;57403.91;;;-146.25;100.00
6044;BME280;3050;42.660;23.276;2023-02-19T13:12:02;57403.91;;;-146.25;100.00
6044;BME280;3050;42.660;23.276;2023-02-19T13:14:35;57403.91;;;-146.25;100.00
6044;BME280;3050;42.660;23.276;2023-02-19T13:17:10;57403.91;;;-146.25;100.00
6044;BME280;3050;42.660;23.276;2023-02-19T13:19:45;57403.91;;;-146.25;100.00
6044;BME280;3050;42.660;23.276;2023-02-19T13:22:27;57403.91;;;-146.25;100.00
6044;BME280;3050;42.660;23.276;2023-02-19T13:25:18;57403.91;;;-146.25;100.00
6044;BME280;3050;42.660;23.276;2023-02-19T13:28:08;57403.91;;;-146.25;100.00
6044;BME280;3050;42.660;23.276;2023-02-19T13:31:00;57403.91;;;-146.25;100.00
6044;BME280;3050;42.660;23.276;2023-02-19T13:33:42;57403.91;;;-146.25;100.00
6044;BME280;3050;42.660;23.276;2023-02-19T13:36:16;57403.91;;;-146.25;100.00
6044;BME280;3050;42.660;23.276;2023-02-19T13:38:48;57403.91;;;-146.25;100.00
6044;BME280;3050;42.660;23.276;2023-02-19T13:41:19;57403.91;;;-146.25;100.00
6044;BME280;3050;42.660;23.276;2023-02-19T13:43:54;57403.91;;;-146.25;100.00
6044;BME280;3050;42.660;23.276;2023-02-19T13:46:24;57403.91;;;-146.25;100.00
6044;BME280;3050;42.660;23.276;2023-02-19T13:49:24;57403.91;;;-146.25;100.00
6044;BME280;3050;42.660;23.276;2023-02-19T13:51:52;57403.91;;;-146.25;100.00
6044;BME280;3050;42.660;23.276;2023-02-19T13:54:26;57403.91;;;-146.25;100.00
6044;BME280;3050;42.660;23.276;2023-02-19T13:57:24;57403.91;;;-146.25;100.00
6044;BME280;3050;42.660;23.276;2023-02-19T13:59:53;57403.91;;;-146.25;100.00
6044;BME280;3050;42.660;23.276;2023-02-19T14:02:33;57403.91;;;-146.25;100.00
6044;BME280;3050;42.660;23.276;2023-02-19T14:05:07;57403.91;;;-146.25;100.00
6044;BME280;3050;42.660;23.276;2023-02-19T14:07:51;57403.91;;;-146.25;100.00
6044;BME280;3050;42.660;23.276;2023-02-19T14:13:59;57403.91;;;-146.25;100.00
6044;BME280;3050;42.660;23.276;2023-02-19T14:25:54;57403.91;;;-146.25;100.00
6044;BME280;3050;42.660;23.276;2023-02-19T14:28:36;57403.91;;;-146.25;100.00